createdAt,value
2022-11-28T06:20:07.816Z,5.15
2022-11-28T06:20:38.596Z,5.15
2022-11-28T06:21:09.365Z,5.15
2022-11-28T06:21:40.115Z,5.15
2022-11-28T06:22:10.874Z,5.15
2022-11-28T06:22:41.646Z,5.15
2022-11-28T06:23:12.386Z,5.13
2022-11-28T06:23:43.146Z,5.15
2022-11-28T06:24:14.027Z,5.15
2022-11-28T06:24:44.795Z,5.15
2022-11-28T06:25:15.572Z,5.17
2022-11-28T06:25:46.344Z,5.17
2022-11-28T06:26:17.086Z,5.17
2022-11-28T06:26:47.844Z,5.18
2022-11-28T06:27:18.589Z,5.20
2022-11-28T06:27:49.339Z,5.20
2022-11-28T06:28:20.117Z,5.20
2022-11-28T06:28:50.877Z,5.20
2022-11-28T06:29:21.636Z,5.20
2022-11-28T06:29:52.413Z,5.21
2022-11-28T06:30:23.165Z,5.21
2022-11-28T06:30:53.926Z,5.21
2022-11-28T06:31:24.774Z,5.22
2022-11-28T06:31:55.643Z,5.22
2022-11-28T06:32:26.411Z,5.24
2022-11-28T06:32:57.179Z,5.24
2022-11-28T06:33:27.945Z,5.25
2022-11-28T06:33:58.705Z,5.24
2022-11-28T06:34:29.454Z,5.27
2022-11-28T06:35:00.229Z,5.25
2022-11-28T06:35:30.976Z,5.27
2022-11-28T06:36:01.727Z,5.27
2022-11-28T06:36:32.486Z,5.27
2022-11-28T06:37:03.245Z,5.27
2022-11-28T06:37:33.996Z,5.27
2022-11-28T06:38:04.759Z,5.25
2022-11-28T06:38:35.508Z,5.27
2022-11-28T06:39:06.257Z,5.30
2022-11-28T06:39:37.009Z,5.28
2022-11-28T06:40:07.790Z,5.28
2022-11-28T06:40:38.531Z,5.27
2022-11-28T06:41:09.289Z,5.28
2022-11-28T06:41:40.048Z,5.27
2022-11-28T06:42:10.820Z,5.27
2022-11-28T06:42:41.564Z,5.28
2022-11-28T06:43:12.318Z,5.27
2022-11-28T06:43:43.066Z,5.30
2022-11-28T06:44:13.820Z,5.30
2022-11-28T06:44:44.597Z,5.28
2022-11-28T06:45:15.366Z,5.28
2022-11-28T06:45:46.162Z,5.28
2022-11-28T06:46:17.159Z,5.28
2022-11-28T06:46:47.998Z,5.28
2022-11-28T06:47:18.740Z,5.27
2022-11-28T06:47:49.493Z,5.30
2022-11-28T06:48:20.249Z,5.28
2022-11-28T06:48:50.990Z,5.28
2022-11-28T06:49:21.749Z,5.30
2022-11-28T06:50:02.970Z,5.28
2022-11-28T06:50:24.769Z,5.30
2022-11-28T06:50:55.511Z,5.28
2022-11-28T06:51:26.270Z,5.28
2022-11-28T06:51:57.028Z,5.30
2022-11-28T06:52:27.789Z,5.31
2022-11-28T06:52:58.531Z,5.31
2022-11-28T06:53:31.559Z,5.28
2022-11-28T06:53:59.501Z,5.28
2022-11-28T06:54:30.254Z,5.30
2022-11-28T06:55:00.998Z,5.28
2022-11-28T06:55:31.762Z,5.28
2022-11-28T06:56:02.521Z,5.30
2022-11-28T06:56:33.271Z,5.30
2022-11-28T06:57:04.029Z,5.30
2022-11-28T06:57:34.781Z,5.31
2022-11-28T06:58:05.540Z,5.30
2022-11-28T06:58:36.293Z,5.31
2022-11-28T06:59:07.039Z,5.31
2022-11-28T06:59:37.793Z,5.30
2022-11-28T07:00:08.567Z,5.28
2022-11-28T07:00:39.332Z,5.30
2022-11-28T07:01:10.226Z,5.30
2022-11-28T07:01:41.072Z,5.30
2022-11-28T07:02:11.929Z,5.30
2022-11-28T07:02:42.789Z,5.28
2022-11-28T07:03:13.583Z,5.30
2022-11-28T07:03:44.335Z,5.30
2022-11-28T07:04:15.081Z,5.28
2022-11-28T07:04:45.842Z,5.28
2022-11-28T07:05:16.623Z,5.27
2022-11-28T07:05:47.391Z,5.27
2022-11-28T07:06:18.141Z,5.27
2022-11-28T07:06:48.893Z,5.27
2022-11-28T07:07:19.723Z,5.28
2022-11-28T07:07:54.510Z,5.27
2022-11-28T07:08:22.419Z,5.28
2022-11-28T07:08:53.173Z,5.27
2022-11-28T07:09:23.924Z,5.24
2022-11-28T07:09:54.685Z,5.25
2022-11-28T07:10:25.439Z,5.27
2022-11-28T07:10:56.210Z,5.27
2022-11-28T07:11:26.945Z,5.25
2022-11-28T07:11:57.713Z,5.25
2022-11-28T07:12:28.475Z,5.25
2022-11-28T07:13:02.496Z,5.25
2022-11-28T07:13:31.867Z,5.25
2022-11-28T07:14:02.647Z,5.25
2022-11-28T07:14:33.410Z,5.25
2022-11-28T07:15:04.162Z,5.24
2022-11-28T07:15:34.933Z,5.25
2022-11-28T07:16:05.675Z,5.24
2022-11-28T07:16:36.438Z,5.24
2022-11-28T07:17:07.263Z,5.25
2022-11-28T07:17:38.044Z,5.24
2022-11-28T07:18:08.796Z,5.24
2022-11-28T07:18:39.543Z,5.25
2022-11-28T07:19:10.306Z,5.25
2022-11-28T07:19:41.443Z,5.25
2022-11-28T07:20:12.423Z,5.24
2022-11-28T07:20:43.193Z,5.25
2022-11-28T07:21:13.942Z,5.24
2022-11-28T07:21:44.686Z,5.24
2022-11-28T07:22:15.426Z,5.24
2022-11-28T07:22:46.197Z,5.24
2022-11-28T07:23:16.946Z,5.25
2022-11-28T07:23:47.694Z,5.24
2022-11-28T07:24:18.447Z,5.22
2022-11-28T07:24:49.224Z,5.22
2022-11-28T07:25:19.988Z,5.22
2022-11-28T07:25:50.742Z,5.24
2022-11-28T07:26:21.500Z,5.22
2022-11-28T07:26:52.236Z,5.24
2022-11-28T07:27:22.986Z,5.21
2022-11-28T07:27:53.734Z,5.22
2022-11-28T07:28:24.486Z,5.22
2022-11-28T07:28:55.237Z,5.21
2022-11-28T07:29:25.997Z,5.22
2022-11-28T07:29:56.747Z,5.21
2022-11-28T07:30:27.521Z,5.21
2022-11-28T07:30:58.276Z,5.22
2022-11-28T07:31:29.051Z,5.21
2022-11-28T07:31:59.877Z,5.21
2022-11-28T07:32:30.656Z,5.20
2022-11-28T07:33:01.415Z,5.22
2022-11-28T07:33:32.282Z,5.21
2022-11-28T07:34:03.028Z,5.21
2022-11-28T07:34:33.798Z,5.21
2022-11-28T07:35:04.555Z,5.21
2022-11-28T07:35:35.325Z,5.20
2022-11-28T07:36:06.069Z,5.20
2022-11-28T07:36:36.834Z,5.20
2022-11-28T07:37:07.582Z,5.20
2022-11-28T07:37:38.340Z,5.18
2022-11-28T07:38:09.088Z,5.18
2022-11-28T07:38:39.844Z,5.18
2022-11-28T07:39:10.607Z,5.17
2022-11-28T07:39:41.712Z,5.17
2022-11-28T07:40:12.664Z,5.17
2022-11-28T07:40:43.431Z,5.15
2022-11-28T07:41:14.181Z,5.15
2022-11-28T07:41:44.929Z,5.17
2022-11-28T07:42:15.704Z,5.18
2022-11-28T07:42:46.460Z,5.18
2022-11-28T07:43:17.199Z,5.20
2022-11-28T07:43:47.960Z,5.20
2022-11-28T07:44:18.731Z,5.20
2022-11-28T07:44:49.502Z,5.21
2022-11-28T07:45:20.268Z,5.22
2022-11-28T07:46:00.608Z,5.22
2022-11-28T07:46:23.686Z,5.24
2022-11-28T07:46:54.532Z,5.24
2022-11-28T07:47:25.293Z,5.25
2022-11-28T07:47:56.059Z,5.24
2022-11-28T07:48:26.810Z,5.27
2022-11-28T07:48:57.562Z,5.25
2022-11-28T07:49:28.318Z,5.28
2022-11-28T07:49:59.071Z,5.28
2022-11-28T07:50:29.815Z,5.27
2022-11-28T07:51:00.590Z,5.28
2022-11-28T07:51:31.344Z,5.28
2022-11-28T07:52:02.101Z,5.30
2022-11-28T07:52:32.841Z,5.30
2022-11-28T07:53:07.184Z,5.30
2022-11-28T07:53:35.162Z,5.27
2022-11-28T07:54:05.922Z,5.30
2022-11-28T07:54:36.681Z,5.30
2022-11-28T07:55:07.432Z,5.30
2022-11-28T07:55:38.189Z,5.30
2022-11-28T07:56:08.972Z,5.30
2022-11-28T07:57:10.879Z,5.31
2022-11-28T07:57:13.407Z,5.31
2022-11-28T07:57:44.373Z,5.30
2022-11-28T07:58:15.122Z,5.31
2022-11-28T07:58:45.872Z,5.31
2022-11-28T07:59:16.621Z,5.31
2022-11-28T07:59:47.376Z,5.31
2022-11-28T08:00:18.130Z,5.31
2022-11-28T08:00:48.882Z,5.33
2022-11-28T08:01:19.672Z,5.33
2022-11-28T08:01:50.477Z,5.31
2022-11-28T08:02:21.355Z,5.31
2022-11-28T08:02:52.122Z,5.33
2022-11-28T08:03:22.863Z,5.31
2022-11-28T08:03:53.613Z,5.33
2022-11-28T08:04:24.411Z,5.33
2022-11-28T08:04:55.564Z,5.33
2022-11-28T08:05:26.393Z,5.33
2022-11-28T08:06:01.568Z,5.33
2022-11-28T08:06:29.766Z,5.33
2022-11-28T08:07:00.524Z,5.33
2022-11-28T08:07:31.340Z,5.35
2022-11-28T08:08:02.238Z,5.33
2022-11-28T08:08:33.079Z,5.33
2022-11-28T08:09:03.821Z,5.33
2022-11-28T08:09:34.575Z,5.33
2022-11-28T08:10:05.341Z,5.33
2022-11-28T08:10:36.094Z,5.36
2022-11-28T08:11:06.863Z,5.35
2022-11-28T08:11:37.614Z,5.35
2022-11-28T08:12:08.371Z,5.35
2022-11-28T08:12:39.114Z,5.35
2022-11-28T08:13:09.873Z,5.35
2022-11-28T08:13:40.648Z,5.35
2022-11-28T08:14:11.410Z,5.36
2022-11-28T08:14:42.675Z,5.36
2022-11-28T08:15:13.640Z,5.36
2022-11-28T08:15:44.376Z,5.38
2022-11-28T08:16:15.249Z,5.38
2022-11-28T08:16:46.027Z,5.39
2022-11-28T08:17:16.861Z,5.38
2022-11-28T08:17:47.602Z,5.38
2022-11-28T08:18:18.356Z,5.39
2022-11-28T08:18:49.105Z,5.38
2022-11-28T08:19:23.095Z,5.38
2022-11-28T08:19:52.458Z,5.39
2022-11-28T08:20:23.212Z,5.39
2022-11-28T08:20:54.565Z,5.39
2022-11-28T08:21:25.335Z,5.40
2022-11-28T08:21:56.088Z,5.39
2022-11-28T08:22:26.866Z,5.40
2022-11-28T08:22:57.627Z,5.40
2022-11-28T08:23:28.395Z,5.42
2022-11-28T08:23:59.138Z,5.40
2022-11-28T08:24:29.887Z,5.43
2022-11-28T08:25:00.647Z,5.42
2022-11-28T08:25:31.409Z,5.43
2022-11-28T08:26:02.157Z,5.45
2022-11-28T08:26:32.927Z,5.45
2022-11-28T08:27:03.693Z,5.45
2022-11-28T08:27:34.449Z,5.45
2022-11-28T08:28:05.209Z,5.46
2022-11-28T08:28:35.969Z,5.48
2022-11-28T08:29:06.719Z,5.49
2022-11-28T08:29:37.498Z,5.48
2022-11-28T08:30:15.364Z,5.49
2022-11-28T08:30:40.161Z,5.49
2022-11-28T08:31:11.362Z,5.49
2022-11-28T08:31:42.179Z,5.49
2022-11-28T08:32:13.022Z,5.48
2022-11-28T08:32:43.822Z,5.49
2022-11-28T08:33:14.817Z,5.49
2022-11-28T08:33:45.599Z,5.48
2022-11-28T08:34:16.386Z,5.49
2022-11-28T08:34:47.150Z,5.49
2022-11-28T08:35:17.912Z,5.48
2022-11-28T08:35:48.709Z,5.49
2022-11-28T08:36:19.471Z,5.51
2022-11-28T08:36:50.269Z,5.53
2022-11-28T08:37:21.028Z,5.53
2022-11-28T08:37:51.806Z,5.53
2022-11-28T08:38:22.547Z,5.53
2022-11-28T08:39:09.441Z,5.56
2022-11-28T08:39:26.003Z,5.54
2022-11-28T08:39:56.744Z,5.54
2022-11-28T08:40:27.524Z,5.56
2022-11-28T08:40:58.253Z,5.54
2022-11-28T08:41:29.047Z,5.53
2022-11-28T08:41:59.880Z,5.56
2022-11-28T08:42:30.870Z,5.56
2022-11-28T08:43:01.644Z,5.56
2022-11-28T08:43:32.409Z,5.56
2022-11-28T08:44:03.185Z,5.54
2022-11-28T08:44:33.947Z,5.56
2022-11-28T08:45:04.743Z,5.56
2022-11-28T08:45:35.615Z,5.56
2022-11-28T08:46:06.510Z,5.56
2022-11-28T08:46:37.384Z,5.56
2022-11-28T08:47:08.227Z,5.57
2022-11-28T08:47:39.196Z,5.56
2022-11-28T08:48:10.166Z,5.56
2022-11-28T08:48:41.144Z,5.56
2022-11-28T08:49:12.041Z,5.54
2022-11-28T08:49:43.190Z,5.54
2022-11-28T08:50:14.171Z,5.54
2022-11-28T08:50:47.947Z,5.54
2022-11-28T08:51:16.114Z,5.54
2022-11-28T08:51:47.120Z,5.56
2022-11-28T08:52:18.065Z,5.56
2022-11-28T08:52:48.904Z,5.56
2022-11-28T08:53:19.744Z,5.54
2022-11-28T08:53:54.900Z,5.57
2022-11-28T08:54:23.214Z,5.57
2022-11-28T08:54:54.017Z,5.56
2022-11-28T08:55:31.964Z,5.57
2022-11-28T08:55:57.497Z,5.57
2022-11-28T08:56:28.266Z,5.57
2022-11-28T08:56:59.022Z,5.58
2022-11-28T08:57:29.756Z,5.58
2022-11-28T08:58:15.426Z,5.60
2022-11-28T08:58:45.699Z,5.58
2022-11-28T08:59:01.245Z,5.58
2022-11-28T08:59:31.987Z,5.61
2022-11-28T09:00:02.726Z,5.60
2022-11-28T09:00:33.468Z,5.61
2022-11-28T09:01:04.225Z,5.61
2022-11-28T09:01:35.013Z,5.58
2022-11-28T09:02:05.766Z,5.61
2022-11-28T09:02:36.506Z,5.61
2022-11-28T09:03:07.254Z,5.61
2022-11-28T09:03:38.155Z,5.61
2022-11-28T09:04:09.040Z,5.60
2022-11-28T09:04:39.807Z,5.61
2022-11-28T09:05:10.547Z,5.63
2022-11-28T09:05:41.287Z,5.60
2022-11-28T09:06:12.047Z,5.60
2022-11-28T09:06:42.806Z,5.60
2022-11-28T09:07:13.622Z,5.61
2022-11-28T09:07:44.386Z,5.61
2022-11-28T09:08:15.124Z,5.61
2022-11-28T09:08:45.866Z,5.60
2022-11-28T09:09:16.607Z,5.60
2022-11-28T09:09:47.716Z,5.61
2022-11-28T09:10:18.794Z,5.63
2022-11-28T09:10:49.527Z,5.61
2022-11-28T09:11:20.294Z,5.63
2022-11-28T09:11:51.046Z,5.63
2022-11-28T09:12:21.780Z,5.63
2022-11-28T09:12:52.519Z,5.61
2022-11-28T09:13:23.266Z,5.63
2022-11-28T09:13:54.005Z,5.63
2022-11-28T09:14:24.747Z,5.63
2022-11-28T09:14:55.488Z,5.65
2022-11-28T09:15:26.221Z,5.64
2022-11-28T09:15:56.968Z,5.65
2022-11-28T09:16:27.791Z,5.65
2022-11-28T09:16:58.555Z,5.67
2022-11-28T09:17:29.307Z,5.67
2022-11-28T09:18:00.047Z,5.68
2022-11-28T09:18:30.783Z,5.71
2022-11-28T09:19:01.523Z,5.71
2022-11-28T09:19:32.248Z,5.72
2022-11-28T09:20:02.998Z,5.74
2022-11-28T09:20:34.029Z,5.74
2022-11-28T09:21:06.071Z,5.72
2022-11-28T09:21:37.302Z,5.74
2022-11-28T09:22:10.815Z,5.74
2022-11-28T09:22:39.786Z,5.74
2022-11-28T09:23:10.881Z,5.74
2022-11-28T09:23:41.932Z,5.75
2022-11-28T09:24:12.778Z,5.75
2022-11-28T09:24:43.595Z,5.75
2022-11-28T09:25:14.442Z,5.75
2022-11-28T09:25:45.232Z,5.75
2022-11-28T09:26:16.045Z,5.76
2022-11-28T09:26:46.833Z,5.78
2022-11-28T09:27:17.727Z,5.76
2022-11-28T09:27:48.572Z,5.75
2022-11-28T09:28:19.393Z,5.76
2022-11-28T09:28:50.162Z,5.78
2022-11-28T09:29:20.946Z,5.79
2022-11-28T09:29:51.711Z,5.81
2022-11-28T09:30:22.576Z,5.79
2022-11-28T09:30:53.381Z,5.81
2022-11-28T09:31:24.262Z,5.81
2022-11-28T09:31:55.112Z,5.81
2022-11-28T09:32:25.881Z,5.81
2022-11-28T09:32:56.663Z,5.81
2022-11-28T09:33:27.450Z,5.82
2022-11-28T09:33:58.252Z,5.81
2022-11-28T09:34:29.207Z,5.82
2022-11-28T09:35:00.027Z,5.79
2022-11-28T09:35:30.793Z,5.79
2022-11-28T09:36:01.622Z,5.78
2022-11-28T09:36:32.544Z,5.78
2022-11-28T09:37:04.962Z,5.79
2022-11-28T09:37:36.001Z,5.79
2022-11-28T09:38:06.833Z,5.79
2022-11-28T09:38:37.685Z,5.79
2022-11-28T09:39:08.443Z,5.79
2022-11-28T09:39:50.587Z,5.79
2022-11-28T09:40:13.436Z,5.79
2022-11-28T09:40:44.699Z,5.78
2022-11-28T09:41:15.481Z,5.79
2022-11-28T09:41:46.311Z,5.78
2022-11-28T09:42:17.106Z,5.78
2022-11-28T09:42:47.947Z,5.76
2022-11-28T09:43:18.743Z,5.75
2022-11-28T09:43:54.607Z,5.78
2022-11-28T09:44:22.165Z,5.78
2022-11-28T09:44:52.987Z,5.76
2022-11-28T09:45:23.849Z,5.78
2022-11-28T09:45:54.702Z,5.78
2022-11-28T09:46:25.683Z,5.78
2022-11-28T09:46:56.825Z,5.78
2022-11-28T09:47:27.724Z,5.78
2022-11-28T09:47:58.721Z,5.79
2022-11-28T09:48:29.881Z,5.78
2022-11-28T09:49:00.940Z,5.76
2022-11-28T16:55:19.952Z,4.41
2022-11-28T16:55:50.853Z,4.41
2022-11-28T16:56:21.789Z,4.40
2022-11-28T16:56:52.713Z,4.41
2022-11-28T16:57:26.549Z,4.40
2022-11-28T16:57:56.686Z,4.40
2022-11-28T16:58:27.861Z,4.37
2022-11-28T16:58:58.720Z,4.37
2022-11-28T16:59:29.586Z,4.36
2022-11-28T17:00:00.397Z,4.36
2022-11-28T17:00:31.276Z,4.36
2022-11-28T17:01:02.356Z,4.37
2022-11-28T17:01:33.280Z,4.34
2022-11-28T17:02:04.133Z,4.36
2022-11-28T17:02:35.524Z,4.36
2022-11-28T17:03:10.269Z,4.37
2022-11-28T17:03:39.348Z,4.36
2022-11-28T17:04:10.286Z,4.40
2022-11-28T17:04:41.214Z,4.37
2022-11-28T17:05:12.184Z,4.37
2022-11-28T17:05:43.283Z,4.40
2022-11-28T17:06:14.578Z,4.40
2022-11-28T17:06:45.811Z,4.41
2022-11-28T17:07:17.292Z,4.41
2022-11-28T17:07:48.283Z,4.40
2022-11-28T17:08:19.233Z,4.40
2022-11-28T17:08:50.331Z,4.40
2022-11-28T17:16:33.759Z,4.40
2022-11-28T17:17:04.706Z,4.40
2022-11-28T17:17:35.516Z,4.41
2022-11-28T17:18:06.425Z,4.42
2022-11-28T17:18:37.597Z,4.42
2022-11-28T17:19:08.908Z,4.42
2022-11-28T17:19:39.825Z,4.42
2022-11-28T17:20:11.008Z,4.42
2022-11-28T17:20:42.040Z,4.40
2022-11-28T17:21:13.132Z,4.42
2022-11-28T17:21:44.007Z,4.42
2022-11-28T17:22:14.975Z,4.42
2022-11-28T17:22:45.996Z,4.42
2022-11-28T17:23:16.946Z,4.42
2022-11-28T17:23:47.973Z,4.41
2022-11-28T17:24:18.985Z,4.41
2022-11-28T17:24:49.960Z,4.41
2022-11-28T17:25:20.871Z,4.42
2022-11-28T17:25:51.860Z,4.41
2022-11-28T17:26:22.821Z,4.40
2022-11-28T17:26:53.695Z,4.41
2022-11-28T17:27:24.962Z,4.41
2022-11-28T17:27:56.445Z,4.41
2022-11-28T17:28:29.208Z,4.42
2022-11-28T17:29:00.397Z,4.44
2022-11-28T17:29:31.333Z,4.44
2022-11-28T17:30:02.636Z,4.42
2022-11-28T17:30:33.588Z,4.44
2022-11-28T17:31:04.541Z,4.42
2022-11-28T17:31:35.827Z,4.44
2022-11-28T17:32:06.728Z,4.42
2022-11-28T17:32:37.775Z,4.45
2022-11-28T17:33:08.862Z,4.44
2022-11-28T17:33:44.415Z,4.45
2022-11-28T17:34:12.782Z,4.45
2022-11-28T17:34:43.928Z,4.45
2022-11-28T17:35:15.140Z,4.47
2022-11-28T17:35:46.236Z,4.45
2022-11-28T17:36:17.168Z,4.47
2022-11-28T17:36:48.285Z,4.47
2022-11-28T17:37:19.355Z,4.47
2022-11-28T17:37:50.622Z,4.47
2022-11-28T17:38:21.693Z,4.48
2022-11-28T17:38:53.683Z,4.48
2022-11-28T17:39:24.921Z,4.48
2022-11-28T17:39:55.932Z,4.48
2022-11-28T17:40:27.042Z,4.47
2022-11-28T17:40:57.989Z,4.48
2022-11-28T17:41:29.068Z,4.45
2022-11-28T17:42:00.120Z,4.47
2022-11-28T17:42:31.362Z,4.47
2022-11-28T17:43:02.260Z,4.48
2022-11-28T17:43:38.721Z,4.47
2022-11-28T17:44:06.010Z,4.47
2022-11-28T17:44:36.855Z,4.47
2022-11-28T17:45:07.800Z,4.48
2022-11-28T17:45:38.736Z,4.47
2022-11-28T17:46:09.875Z,4.47
2022-11-28T17:46:40.831Z,4.45
2022-11-28T17:47:11.915Z,4.47
2022-11-28T17:47:42.824Z,4.47
2022-11-28T17:48:13.753Z,4.47
2022-11-28T17:48:44.819Z,4.47
2022-11-28T17:49:15.743Z,4.48
2022-11-28T17:49:46.776Z,4.48
2022-11-28T17:50:17.709Z,4.48
2022-11-28T17:50:48.752Z,4.50
2022-11-28T17:51:19.633Z,4.50
2022-11-28T17:51:50.945Z,4.51
2022-11-28T17:52:21.836Z,4.50
2022-11-28T17:52:53.067Z,4.50
2022-11-28T17:53:24.101Z,4.50
2022-11-28T17:53:55.556Z,4.50
2022-11-28T17:54:26.434Z,4.48
2022-11-28T17:55:00.946Z,4.50
2022-11-28T17:55:30.601Z,4.47
2022-11-28T17:56:01.458Z,4.47
2022-11-28T17:56:32.407Z,4.48
2022-11-28T17:57:03.372Z,4.47
2022-11-28T17:57:34.392Z,4.47
2022-11-28T17:58:05.389Z,4.47
2022-11-28T17:58:36.401Z,4.47
2022-11-28T17:59:07.437Z,4.48
2022-11-28T17:59:38.507Z,4.50
2022-11-28T18:00:10.019Z,4.48
2022-11-28T18:00:41.015Z,4.48
2022-11-28T18:01:12.033Z,4.47
2022-11-28T18:01:43.007Z,4.47
2022-11-28T18:02:13.899Z,4.45
2022-11-28T18:02:44.757Z,4.47
2022-11-28T18:03:15.741Z,4.47
2022-11-28T18:03:46.531Z,4.47
2022-11-28T18:04:17.737Z,4.45
2022-11-28T18:04:48.654Z,4.47
2022-11-28T18:05:19.623Z,4.45
2022-11-28T18:05:50.600Z,4.47
2022-11-28T18:06:21.835Z,4.45
2022-11-28T18:06:52.664Z,4.48
2022-11-28T18:07:23.696Z,4.47
2022-11-28T18:07:54.605Z,4.48
2022-11-28T18:08:25.841Z,4.47
2022-11-28T18:08:56.769Z,4.48
2022-11-28T18:09:27.703Z,4.48
2022-11-28T18:09:58.503Z,4.48
2022-11-28T18:10:29.344Z,4.47
2022-11-28T18:11:00.338Z,4.48
2022-11-28T18:11:31.303Z,4.48
2022-11-28T18:12:02.319Z,4.47
2022-11-28T18:12:33.343Z,4.47
2022-11-28T18:13:04.551Z,4.48
2022-11-28T18:13:35.530Z,4.50
2022-11-28T18:14:06.414Z,4.48
2022-11-28T18:14:39.766Z,4.47
2022-11-28T18:15:07.980Z,4.47
2022-11-28T18:15:39.022Z,4.48
2022-11-28T18:16:10.143Z,4.48
2022-11-28T18:16:41.090Z,4.48
2022-11-28T18:17:12.138Z,4.48
2022-11-28T18:17:42.978Z,4.50
2022-11-28T18:18:14.083Z,4.50
2022-11-28T18:18:44.924Z,4.50
2022-11-28T18:19:16.110Z,4.48
2022-11-28T18:19:47.052Z,4.48
2022-11-28T18:20:17.841Z,4.48
2022-11-28T18:20:48.636Z,4.47
2022-11-28T18:21:19.419Z,4.50
2022-11-28T18:21:50.201Z,4.48
2022-11-28T18:22:20.976Z,4.47
2022-11-28T18:22:51.749Z,4.45
2022-11-28T18:23:22.514Z,4.47
2022-11-28T18:23:53.272Z,4.48
2022-11-28T18:24:24.029Z,4.50
2022-11-28T18:24:54.784Z,4.50
2022-11-28T18:25:25.723Z,4.50
2022-11-28T18:25:56.589Z,4.50
2022-11-28T18:26:27.414Z,4.50
2022-11-28T18:26:58.243Z,4.50
2022-11-28T18:27:29.088Z,4.50
2022-11-28T18:27:59.979Z,4.48
2022-11-28T18:28:30.744Z,4.48
2022-11-28T18:29:01.570Z,4.47
2022-11-28T18:29:32.605Z,4.47
2022-11-28T18:30:03.437Z,4.47
2022-11-28T18:30:34.494Z,4.48
2022-11-28T18:31:05.338Z,4.48
2022-11-28T18:31:36.284Z,4.48
2022-11-28T18:32:07.305Z,4.48
2022-11-28T18:32:38.259Z,4.47
2022-11-28T18:33:09.192Z,4.47
2022-11-28T18:33:40.196Z,4.48
2022-11-28T18:34:11.255Z,4.48
2022-11-28T18:34:42.100Z,4.48
2022-11-28T18:35:13.001Z,4.48
2022-11-28T18:35:43.911Z,4.50
2022-11-28T18:36:14.887Z,4.48
2022-11-28T18:36:45.715Z,4.50
2022-11-28T18:37:16.526Z,4.48
2022-11-28T18:37:47.470Z,4.50
2022-11-28T18:38:18.658Z,4.48
2022-11-28T18:38:49.705Z,4.48
2022-11-28T18:39:20.576Z,4.50
2022-11-28T18:39:51.545Z,4.47
2022-11-28T18:40:22.431Z,4.50
2022-11-28T18:40:53.802Z,4.50
2022-11-28T18:41:24.643Z,4.51
2022-11-28T18:41:55.678Z,4.50
2022-11-28T18:42:26.493Z,4.50
2022-11-28T18:42:57.479Z,4.48
2022-11-28T18:43:28.337Z,4.50
2022-11-28T18:43:59.210Z,4.50
2022-11-28T18:44:30.090Z,4.50
2022-11-28T18:45:01.167Z,4.50
2022-11-28T18:45:31.999Z,4.51
2022-11-28T18:46:02.929Z,4.51
2022-11-28T18:46:33.736Z,4.51
2022-11-28T18:47:04.497Z,4.51
2022-11-28T18:47:35.309Z,4.50
2022-11-28T18:48:06.173Z,4.50
2022-11-28T18:48:36.947Z,4.48
2022-11-28T18:49:07.687Z,4.47
2022-11-28T18:49:38.461Z,4.45
2022-11-28T18:50:09.266Z,4.45
2022-11-28T18:50:40.498Z,4.47
2022-11-28T18:51:11.591Z,4.45
2022-11-28T18:51:42.815Z,4.45
2022-11-28T18:52:14.037Z,4.45
2022-11-28T18:52:45.109Z,4.45
2022-11-28T18:53:15.972Z,4.47
2022-11-28T18:53:46.849Z,4.47
2022-11-28T18:54:21.293Z,4.47
2022-11-28T18:54:49.526Z,4.45
2022-11-28T18:55:20.601Z,4.44
2022-11-28T18:55:51.637Z,4.45
2022-11-28T18:56:22.593Z,4.44
2022-11-28T18:56:53.738Z,4.45
2022-11-28T18:57:25.034Z,4.44
2022-11-28T18:57:55.901Z,4.45
2022-11-28T18:58:26.982Z,4.47
2022-11-28T18:58:57.909Z,4.45
2022-11-28T18:59:28.820Z,4.47
2022-11-28T19:00:00.290Z,4.47
2022-11-28T19:00:31.601Z,4.44
2022-11-28T19:01:02.484Z,4.47
2022-11-28T19:01:33.835Z,4.45
2022-11-28T19:02:04.860Z,4.45
2022-11-28T19:02:35.765Z,4.47
2022-11-28T19:03:06.927Z,4.45
2022-11-28T19:03:38.077Z,4.45
2022-11-28T19:04:08.890Z,4.44
2022-11-28T19:04:40.084Z,4.42
2022-11-28T19:05:11.402Z,4.44
2022-11-28T19:05:42.382Z,4.44
2022-11-28T19:06:13.238Z,4.44
2022-11-28T19:06:44.110Z,4.44
2022-11-28T19:07:15.015Z,4.45
2022-11-28T19:07:46.112Z,4.45
2022-11-28T19:08:17.068Z,4.45
2022-11-28T19:08:47.900Z,4.47
2022-11-28T19:09:18.767Z,4.48
2022-11-28T19:09:49.691Z,4.47
2022-11-28T19:10:20.687Z,4.47
2022-11-28T19:10:51.735Z,4.48
2022-11-28T19:11:22.771Z,4.48
2022-11-28T19:11:53.731Z,4.47
2022-11-28T19:12:24.637Z,4.50
2022-11-28T19:12:55.556Z,4.50
2022-11-28T19:13:27.154Z,4.48
2022-11-28T19:13:58.091Z,4.50
2022-11-28T19:14:29.074Z,4.50
2022-11-28T19:15:02.504Z,4.50
2022-11-28T19:15:30.783Z,4.48
2022-11-28T19:16:01.745Z,4.47
2022-11-28T19:16:32.630Z,4.47
2022-11-28T19:17:03.604Z,4.48
2022-11-28T19:17:34.395Z,4.48
2022-11-28T19:18:05.441Z,4.48
2022-11-28T19:18:36.568Z,4.48
2022-11-28T19:19:07.531Z,4.48
2022-11-28T19:19:38.741Z,4.47
2022-11-28T19:20:09.522Z,4.48
2022-11-28T19:20:40.359Z,4.47
2022-11-28T19:21:11.315Z,4.50
2022-11-28T19:21:42.324Z,4.48
2022-11-28T19:22:13.325Z,4.50
2022-11-28T19:22:44.148Z,4.50
2022-11-28T19:23:15.039Z,4.51
2022-11-28T19:23:46.131Z,4.51
2022-11-28T19:24:17.159Z,4.51
2022-11-28T19:24:48.137Z,4.50
2022-11-28T19:25:19.062Z,4.52
2022-11-28T19:25:49.949Z,4.52
2022-11-28T19:26:20.745Z,4.51
2022-11-28T19:26:51.776Z,4.52
2022-11-28T19:27:22.897Z,4.51
2022-11-28T19:27:53.804Z,4.50
2022-11-28T19:28:24.819Z,4.52
2022-11-28T19:28:55.923Z,4.51
2022-11-28T19:29:26.752Z,4.51
2022-11-28T19:29:57.777Z,4.50
2022-11-28T19:30:28.590Z,4.51
2022-11-28T19:30:59.486Z,4.50
2022-11-28T19:31:30.341Z,4.51
2022-11-28T19:32:01.229Z,4.51
2022-11-28T19:32:32.190Z,4.51
2022-11-28T19:33:03.166Z,4.50
2022-11-28T19:33:34.027Z,4.48
2022-11-28T19:34:05.282Z,4.51
2022-11-28T19:34:36.186Z,4.51
2022-11-28T19:35:07.307Z,4.48
2022-11-28T19:35:38.304Z,4.48
2022-11-28T19:36:09.525Z,4.48
2022-11-28T19:36:40.661Z,4.48
2022-11-28T19:37:11.593Z,4.50
2022-11-28T19:37:42.731Z,4.48
2022-11-28T19:38:13.714Z,4.48
2022-11-28T19:38:44.750Z,4.48
2022-11-28T19:39:15.631Z,4.48
2022-11-28T19:39:46.575Z,4.48
2022-11-28T19:40:17.425Z,4.47
2022-11-28T19:40:48.415Z,4.47
2022-11-28T19:41:19.532Z,4.45
2022-11-28T19:41:50.671Z,4.45
2022-11-28T19:42:21.581Z,4.44
2022-11-28T19:42:52.499Z,4.45
2022-11-28T19:43:23.413Z,4.45
2022-11-28T19:43:54.374Z,4.47
2022-11-28T19:44:25.581Z,4.45
2022-11-28T19:44:56.639Z,4.45
2022-11-28T19:45:27.498Z,4.45
2022-11-28T19:45:58.462Z,4.45
2022-11-28T19:46:35.144Z,4.45
2022-11-28T19:47:02.419Z,4.45
2022-11-28T19:47:33.260Z,4.45
2022-11-28T19:48:05.125Z,4.48
2022-11-28T19:48:36.199Z,4.47
2022-11-28T19:49:07.516Z,4.47
2022-11-28T19:49:38.494Z,4.45
2022-11-28T19:50:09.530Z,4.45
2022-11-28T19:50:40.475Z,4.45
2022-11-28T19:51:11.682Z,4.47
2022-11-28T19:51:42.656Z,4.47
2022-11-28T19:52:13.682Z,4.47
2022-11-28T19:52:44.746Z,4.47
2022-11-28T19:53:16.026Z,4.47
2022-11-28T19:53:47.107Z,4.48
2022-11-28T19:54:17.973Z,4.48
2022-11-28T19:54:49.041Z,4.48
2022-11-28T19:55:20.131Z,4.48
2022-11-28T19:55:51.067Z,4.50
2022-11-28T19:56:22.256Z,4.50
2022-11-28T19:56:53.904Z,4.48
2022-11-28T19:57:24.732Z,4.48
2022-11-28T19:57:55.664Z,4.50
2022-11-28T19:58:26.631Z,4.50
2022-11-28T19:58:57.589Z,4.50
2022-11-28T19:59:28.382Z,4.48
2022-11-28T19:59:59.315Z,4.48
2022-11-28T20:00:30.105Z,4.48
2022-11-28T20:01:02.151Z,4.48
2022-11-28T20:01:33.298Z,4.47
2022-11-28T20:02:04.205Z,4.48
2022-11-28T20:02:35.141Z,4.47
2022-11-28T20:03:06.057Z,4.47
2022-11-28T20:03:37.340Z,4.48
2022-11-28T20:04:08.384Z,4.48
2022-11-28T20:04:39.310Z,4.47
2022-11-28T20:05:10.252Z,4.47
2022-11-28T20:05:41.430Z,4.47
2022-11-28T20:06:12.562Z,4.47
2022-11-28T20:06:43.558Z,4.47
2022-11-28T20:07:14.734Z,4.47
2022-11-28T20:07:45.639Z,4.47
2022-11-28T20:08:16.892Z,4.47
2022-11-28T20:08:47.794Z,4.48
2022-11-28T20:09:18.697Z,4.47
2022-11-28T20:09:49.510Z,4.47
2022-11-28T20:10:20.373Z,4.48
2022-11-28T20:10:51.376Z,4.47
2022-11-28T20:11:22.448Z,4.47
2022-11-28T20:11:53.395Z,4.47
2022-11-28T20:12:24.192Z,4.45
2022-11-28T20:12:55.071Z,4.45
2022-11-28T20:13:25.869Z,4.45
2022-11-28T20:13:57.001Z,4.45
2022-11-28T20:14:27.888Z,4.47
2022-11-28T20:14:58.915Z,4.47
2022-11-28T20:15:29.812Z,4.47
2022-11-28T20:16:00.730Z,4.47
2022-11-28T20:16:31.694Z,4.50
2022-11-28T20:17:02.661Z,4.48
2022-11-28T20:17:33.605Z,4.48
2022-11-28T20:18:04.625Z,4.50
2022-11-28T20:18:35.567Z,4.50
2022-11-28T20:19:06.735Z,4.50
2022-11-28T20:19:38.053Z,4.48
2022-11-28T20:20:09.193Z,4.48
2022-11-28T20:20:40.363Z,4.48
2022-11-28T20:21:11.419Z,4.48
2022-11-28T20:21:42.353Z,4.48
2022-11-28T20:22:13.247Z,4.48
2022-11-28T20:22:44.272Z,4.48
2022-11-28T20:23:15.512Z,4.48
2022-11-28T20:23:51.733Z,4.48
2022-11-28T20:24:16.433Z,4.50
2022-11-28T20:24:47.210Z,4.50